1 de julho de 2022

Hora Código Clima Temp. Visibilidade Tecto Vento METAR/SPECI
10:20 da manhã
V
59 °F 6¼ mi+ 11.000 ft 250° 250° 11 kt METAR ETND 010820Z 25011KT 9999 SCT015 BKN110 15/13 Q1016 BLU
9:20 da manhã
V
59 °F 5⅝ mi 10.000 ft 250° 250° 10 kt METAR ETND 010720Z 25010KT 9000 SCT012 SCT085 OVC100 15/13 Q1016 BLU
8:52 da manhã
M
59 °F 5 mi 1.000 ft 240° 240° 9 kt METAR ETND 010652Z 24009KT 8000 -RA BKN010 SCT085 OVC100 15/13 Q1015 GRN
8:20 da manhã
V
59 °F 5 mi 10.000 ft 250° 250° 9 kt METAR ETND 010620Z 25009KT 8000 -RA SCT010 SCT085 OVC100 15/13 Q1015 BLU
7:20 da manhã
M
59 °F 5 mi 1.000 ft 250° 250° 9 kt METAR ETND 010520Z 25009KT 8000 -RA FEW007 BKN010 OVC110 15/14 Q1015 GRN
6:20 da manhã
M
59 °F 5⅝ mi 1.000 ft 240° 240° 8 kt METAR ETND 010420Z 24008KT 9000 -RA SCT007 BKN010 15/14 Q1015 GRN

30 de junho de 2022

Hora Código Clima Temp. Visibilidade Tecto Vento METAR/SPECI
2:20 da tarde
V
84 °F 6¼ mi+ - 190° 190° 2 kt METAR ETND 301220Z 19002KT 9999 FEW050CB 29/15 Q1010 BLU+
1:20 da tarde
V
81 °F 6¼ mi+ - 120° 120° 5 kt METAR ETND 301120Z 12005KT 9999 FEW044TCU 27/16 Q1011 BLU+
12:20 da tarde
V
79 °F 6¼ mi+ - 160° 160° 5 kt METAR ETND 301020Z 16005KT 9999 FEW040 26/16 Q1011 BLU+
11:20 da manhã
V
77 °F 6¼ mi+ - 100° 100° 6 kt METAR ETND 300920Z 10006KT 9999 FEW280 25/17 Q1012 BLU+
10:20 da manhã
V
75 °F 6¼ mi+ - 100° 100° 7 kt METAR ETND 300820Z 10007KT 9999 FEW280 24/16 Q1012 BLU+
9:20 da manhã
V
72 °F 6¼ mi+ - 090° 090° 6 kt METAR ETND 300720Z 09006KT 9999 FEW280 22/15 Q1012 BLU+
Dados mais antigos

Baixe nosso aplicativo

Fácil acesso a todas as condições meteorológicas da aviação no seu celular e no seu tablet.
Com muitas características não disponíveis no site, como suporte offline e uma lista pessoal de aeroportos.

Nós e terceiros acompanhamos seu comportamento na internet em nosso site com cookies. Se você continuar, nós assumimos que você concorda com nossa política de cookies. Saiba mais